Time;durP1;ratioP1;P1;durP2;ratioP2;P2;SDS_P1;SDS_P2;PMS_P1;PMS_P2;Temp;Humidity;BMP_temperature;BMP_pressure;BME280_temperature;BME280_humidity;BME280_pressure;Samples;Min_cycle;Max_cycle;Signal;HPM_P1;HPM_P2
2023/08/30 00:01:38;;;;;;;24.77;22.17;;;;;;;;;;5056554;28;20185;-66
2023/08/30 00:04:04;;;;;;;24.27;21.80;;;;;;;;;;5056320;28;20178;-66
2023/08/30 00:06:31;;;;;;;23.93;20.70;;;;;;;;;;5038160;28;20181;-66
2023/08/30 00:08:58;;;;;;;22.93;20.47;;;;;;;;;;5038219;28;20213;-66
2023/08/30 00:14:05;;;;;;;23.77;21.10;;;;;;;;;;5052931;28;20585;-68
2023/08/30 00:16:31;;;;;;;23.00;20.70;;;;;;;;;;5053640;28;20197;-68
2023/08/30 00:18:57;;;;;;;23.77;20.97;;;;;;;;;;5036210;28;20318;-68
2023/08/30 00:21:23;;;;;;;24.23;21.73;;;;;;;;;;5053563;28;20727;-68
2023/08/30 00:23:49;;;;;;;25.13;22.23;;;;;;;;;;5053706;28;20198;-68
2023/08/30 00:26:15;;;;;;;25.60;21.73;;;;;;;;;;5053712;28;20179;-68
2023/08/30 00:28:41;;;;;;;28.10;22.47;;;;;;;;;;5035610;28;20198;-68
2023/08/30 00:31:06;;;;;;;27.00;22.93;;;;;;;;;;5053380;28;20184;-69
2023/08/30 00:33:32;;;;;;;27.67;24.63;;;;;;;;;;5053255;28;20202;-69
2023/08/30 00:35:59;;;;;;;27.83;24.93;;;;;;;;;;5052765;28;20224;-68
2023/08/30 00:38:26;;;;;;;27.83;24.93;;;;;;;;;;5053473;28;20611;-68
2023/08/30 00:40:52;;;;;;;28.37;24.80;;;;;;;;;;5035273;28;20339;-68
2023/08/30 00:43:18;;;;;;;28.17;25.10;;;;;;;;;;5035346;28;20213;-68
2023/08/30 00:45:45;;;;;;;27.13;24.23;;;;;;;;;;5053148;28;20182;-69
2023/08/30 00:48:11;;;;;;;28.97;24.87;;;;;;;;;;5054155;28;20336;-69
2023/08/30 00:50:38;;;;;;;27.07;24.17;;;;;;;;;;5039917;28;20246;-68
2023/08/30 00:53:05;;;;;;;30.17;25.80;;;;;;;;;;5055583;28;20198;-68
2023/08/30 00:55:33;;;;;;;29.80;25.23;;;;;;;;;;5053268;28;20206;-68
2023/08/30 00:58:00;;;;;;;29.80;26.83;;;;;;;;;;5053300;28;20205;-69
2023/08/30 01:00:27;;;;;;;29.70;26.50;;;;;;;;;;5052940;28;20232;-68
2023/08/30 01:02:53;;;;;;;31.60;26.43;;;;;;;;;;5052943;28;20570;-68
2023/08/30 01:05:19;;;;;;;29.13;25.90;;;;;;;;;;5053501;28;20210;-68
2023/08/30 01:07:45;;;;;;;31.80;26.40;;;;;;;;;;5035133;28;20221;-68
2023/08/30 01:10:11;;;;;;;28.93;25.57;;;;;;;;;;5052888;28;20181;-68
2023/08/30 01:12:44;;;;;;;29.20;26.17;;;;;;;;;;5052708;28;20214;-68
2023/08/30 01:15:13;;;;;;;30.70;27.00;;;;;;;;;;5034907;28;20273;-68
2023/08/30 01:17:40;;;;;;;30.60;26.10;;;;;;;;;;5034976;28;20201;-68
2023/08/30 01:20:15;;;;;;;30.67;27.33;;;;;;;;;;5034977;28;20236;-68
2023/08/30 01:22:44;;;;;;;30.17;26.93;;;;;;;;;;5034716;28;20214;-68
2023/08/30 01:25:21;;;;;;;30.27;27.00;;;;;;;;;;5052544;28;20185;-69
2023/08/30 01:27:49;;;;;;;29.83;26.43;;;;;;;;;;5034816;28;20194;-68
2023/08/30 01:30:15;;;;;;;31.00;27.13;;;;;;;;;;5036381;28;20179;-67
2023/08/30 01:32:42;;;;;;;30.87;27.67;;;;;;;;;;5054451;28;20202;-68
2023/08/30 01:35:08;;;;;;;30.03;26.83;;;;;;;;;;5036125;28;20193;-69
2023/08/30 01:37:35;;;;;;;34.83;26.87;;;;;;;;;;5035083;28;20633;-68
2023/08/30 01:40:04;;;;;;;30.37;27.07;;;;;;;;;;5053176;28;20182;-68
2023/08/30 01:42:30;;;;;;;30.23;26.93;;;;;;;;;;5034773;28;20240;-68
2023/08/30 01:44:59;;;;;;;29.50;26.57;;;;;;;;;;5035830;28;20182;-69
2023/08/30 01:47:26;;;;;;;28.57;25.43;;;;;;;;;;5053710;28;20537;-68
2023/08/30 01:49:53;;;;;;;29.97;24.40;;;;;;;;;;5038900;28;20186;-68
2023/08/30 01:52:20;;;;;;;27.10;24.20;;;;;;;;;;5056346;28;20194;-68
2023/08/30 01:54:47;;;;;;;25.23;22.57;;;;;;;;;;5056767;28;20170;-68
2023/08/30 01:57:13;;;;;;;29.77;24.17;;;;;;;;;;5038309;28;20194;-68
2023/08/30 01:59:39;;;;;;;28.57;24.87;;;;;;;;;;5056202;28;20580;-68
2023/08/30 02:02:05;;;;;;;26.90;24.00;;;;;;;;;;5056424;28;20202;-68
2023/08/30 02:04:32;;;;;;;29.37;23.90;;;;;;;;;;5038432;28;20557;-68
2023/08/30 02:07:02;;;;;;;27.67;24.77;;;;;;;;;;5056190;28;20190;-68
2023/08/30 02:09:49;;;;;;;27.87;25.17;;;;;;;;;;5056018;28;20261;-69
2023/08/30 02:12:15;;;;;;;29.43;25.30;;;;;;;;;;5056167;28;20256;-68
2023/08/30 02:14:44;;;;;;;31.70;25.53;;;;;;;;;;5055904;28;20163;-69
2023/08/30 02:17:10;;;;;;;29.43;25.03;;;;;;;;;;5055980;28;20178;-68
2023/08/30 02:19:36;;;;;;;30.27;26.23;;;;;;;;;;5056165;28;20175;-68
2023/08/30 02:22:03;;;;;;;27.40;24.57;;;;;;;;;;5056010;28;20197;-68
2023/08/30 02:24:29;;;;;;;30.77;25.90;;;;;;;;;;5055815;28;20175;-68
2023/08/30 02:26:55;;;;;;;28.57;25.63;;;;;;;;;;5055678;28;20205;-68
2023/08/30 02:29:21;;;;;;;30.07;26.23;;;;;;;;;;5055788;28;20210;-68
2023/08/30 02:31:47;;;;;;;30.17;25.80;;;;;;;;;;5055517;28;20237;-68
2023/08/30 02:34:13;;;;;;;29.27;26.10;;;;;;;;;;5056067;28;20724;-68
2023/08/30 02:36:39;;;;;;;29.13;26.27;;;;;;;;;;5057229;28;20231;-68
2023/08/30 02:39:05;;;;;;;29.33;26.23;;;;;;;;;;5055832;28;20312;-69
2023/08/30 02:41:31;;;;;;;33.83;26.60;;;;;;;;;;5055529;28;20186;-68
2023/08/30 02:43:57;;;;;;;28.83;25.50;;;;;;;;;;5037535;28;20188;-68
2023/08/30 02:46:23;;;;;;;32.17;26.87;;;;;;;;;;5056342;28;20644;-68
2023/08/30 02:48:49;;;;;;;32.40;28.37;;;;;;;;;;5055378;28;20205;-68
2023/08/30 02:51:15;;;;;;;31.83;28.43;;;;;;;;;;5055158;28;20614;-68
2023/08/30 02:53:41;;;;;;;30.87;27.80;;;;;;;;;;5055361;28;20610;-67
2023/08/30 02:56:07;;;;;;;32.40;29.03;;;;;;;;;;5055461;28;20249;-68
2023/08/30 02:58:33;;;;;;;34.87;31.17;;;;;;;;;;5055181;28;20198;-67
2023/08/30 03:01:00;;;;;;;33.83;29.43;;;;;;;;;;5054821;28;20652;-67
2023/08/30 03:03:26;;;;;;;38.53;30.87;;;;;;;;;;5055141;28;20199;-67
2023/08/30 03:05:52;;;;;;;37.87;30.40;;;;;;;;;;5037435;28;20239;-67
2023/08/30 03:08:18;;;;;;;34.90;29.87;;;;;;;;;;5054972;28;20570;-67
2023/08/30 03:10:44;;;;;;;34.93;31.10;;;;;;;;;;5055229;28;20564;-68
2023/08/30 03:13:10;;;;;;;33.53;29.43;;;;;;;;;;5054953;28;20218;-67
2023/08/30 03:15:36;;;;;;;32.93;29.37;;;;;;;;;;5055130;28;20175;-68
2023/08/30 03:18:02;;;;;;;33.93;30.23;;;;;;;;;;5055127;28;20178;-68
2023/08/30 03:20:28;;;;;;;36.13;29.00;;;;;;;;;;5054733;28;20186;-67
2023/08/30 03:22:57;;;;;;;32.83;29.27;;;;;;;;;;5054572;28;20256;-68
2023/08/30 03:25:23;;;;;;;34.53;30.60;;;;;;;;;;5055151;28;20539;-67
2023/08/30 03:27:49;;;;;;;34.03;30.37;;;;;;;;;;5054719;28;20198;-67
2023/08/30 03:30:15;;;;;;;34.73;31.10;;;;;;;;;;5055980;28;20196;-67
2023/08/30 03:32:41;;;;;;;40.67;29.53;;;;;;;;;;5054958;28;20209;-67
2023/08/30 03:35:08;;;;;;;37.07;30.93;;;;;;;;;;5054583;28;20257;-68
2023/08/30 03:37:34;;;;;;;34.33;30.60;;;;;;;;;;5055042;28;20174;-68
2023/08/30 03:40:00;;;;;;;33.73;30.10;;;;;;;;;;5054721;28;20182;-69
2023/08/30 03:42:26;;;;;;;35.37;31.67;;;;;;;;;;5054677;28;20568;-67
2023/08/30 03:44:52;;;;;;;39.47;30.17;;;;;;;;;;5055174;28;20265;-69
2023/08/30 03:47:18;;;;;;;32.27;28.73;;;;;;;;;;5056587;28;20182;-68
2023/08/30 03:49:44;;;;;;;35.33;31.13;;;;;;;;;;5056719;28;20640;-69
2023/08/30 03:52:10;;;;;;;38.00;30.00;;;;;;;;;;5037277;28;20226;-69
2023/08/30 03:54:36;;;;;;;35.27;29.17;;;;;;;;;;5056169;28;20228;-68
2023/08/30 03:57:02;;;;;;;33.50;29.90;;;;;;;;;;5055050;28;20184;-68
2023/08/30 03:59:28;;;;;;;38.23;30.33;;;;;;;;;;5055514;28;20179;-69
2023/08/30 04:01:54;;;;;;;37.07;32.10;;;;;;;;;;5054878;28;20224;-68
2023/08/30 04:04:20;;;;;;;36.73;31.60;;;;;;;;;;5054547;28;20232;-68
2023/08/30 04:06:46;;;;;;;38.20;30.87;;;;;;;;;;5054387;28;20178;-68
2023/08/30 04:09:12;;;;;;;37.37;31.83;;;;;;;;;;5036194;28;20198;-70
2023/08/30 04:11:38;;;;;;;37.40;31.97;;;;;;;;;;5052882;28;20182;-68
2023/08/30 04:14:04;;;;;;;36.07;30.87;;;;;;;;;;5036189;28;20182;-68
2023/08/30 04:16:30;;;;;;;36.47;31.93;;;;;;;;;;5053837;28;20204;-68
2023/08/30 04:18:57;;;;;;;37.73;31.93;;;;;;;;;;5053756;28;20174;-68
2023/08/30 04:21:23;;;;;;;35.53;31.53;;;;;;;;;;5054764;28;20182;-68
2023/08/30 04:23:49;;;;;;;39.23;32.47;;;;;;;;;;5053840;28;20202;-69
2023/08/30 04:26:15;;;;;;;37.77;30.67;;;;;;;;;;5035630;28;20210;-70
2023/08/30 04:28:41;;;;;;;34.27;30.13;;;;;;;;;;5053845;28;20229;-69
2023/08/30 04:31:07;;;;;;;34.63;31.03;;;;;;;;;;5054174;28;20205;-68
2023/08/30 04:33:33;;;;;;;44.40;32.83;;;;;;;;;;5053884;28;20675;-68
2023/08/30 04:36:00;;;;;;;38.20;31.23;;;;;;;;;;5053877;28;20182;-68
2023/08/30 04:38:26;;;;;;;36.13;31.77;;;;;;;;;;5036270;28;20656;-69
2023/08/30 04:40:58;;;;;;;38.53;30.73;;;;;;;;;;5054215;28;20182;-69
2023/08/30 04:43:24;;;;;;;35.47;31.63;;;;;;;;;;5053671;28;20277;-68
2023/08/30 04:45:50;;;;;;;36.00;30.03;;;;;;;;;;5053311;28;20243;-69
2023/08/30 04:48:15;;;;;;;36.37;29.93;;;;;;;;;;5035646;28;20206;-69
2023/08/30 04:50:41;;;;;;;33.83;29.10;;;;;;;;;;5035824;28;20205;-69
2023/08/30 04:53:07;;;;;;;33.90;30.30;;;;;;;;;;5053138;28;20194;-69
2023/08/30 04:55:33;;;;;;;33.90;29.30;;;;;;;;;;5035286;28;20602;-69
2023/08/30 04:57:59;;;;;;;35.40;29.77;;;;;;;;;;5053026;28;20248;-69
2023/08/30 05:00:25;;;;;;;33.60;29.77;;;;;;;;;;5053143;28;20261;-69
2023/08/30 05:02:51;;;;;;;32.80;29.47;;;;;;;;;;5053146;28;20220;-69
2023/08/30 05:05:17;;;;;;;34.93;29.77;;;;;;;;;;5034967;28;20304;-69
2023/08/30 05:07:43;;;;;;;36.97;31.43;;;;;;;;;;5052885;28;20205;-69
2023/08/30 05:10:09;;;;;;;37.77;32.07;;;;;;;;;;5053164;28;20174;-69
2023/08/30 05:12:35;;;;;;;36.33;31.23;;;;;;;;;;5034954;28;20245;-68
2023/08/30 05:15:01;;;;;;;40.07;32.17;;;;;;;;;;5054642;28;20556;-68
2023/08/30 05:17:28;;;;;;;35.93;32.03;;;;;;;;;;5052992;28;20362;-69
2023/08/30 05:19:54;;;;;;;34.67;30.93;;;;;;;;;;5053439;28;20178;-69
2023/08/30 05:22:20;;;;;;;34.97;31.13;;;;;;;;;;5054158;28;20256;-69
2023/08/30 05:24:46;;;;;;;37.80;31.57;;;;;;;;;;5057695;28;20259;-70
2023/08/30 05:27:14;;;;;;;37.50;32.47;;;;;;;;;;5059139;28;20175;-68
2023/08/30 05:29:40;;;;;;;36.13;32.30;;;;;;;;;;5057113;28;20177;-68
2023/08/30 05:32:06;;;;;;;40.03;31.30;;;;;;;;;;5056586;28;20290;-67
2023/08/30 05:34:32;;;;;;;36.00;31.90;;;;;;;;;;5057250;28;20178;-68
2023/08/30 05:36:58;;;;;;;37.03;33.00;;;;;;;;;;5057282;28;20179;-68
2023/08/30 05:39:24;;;;;;;39.33;32.43;;;;;;;;;;5057069;28;20181;-69
2023/08/30 05:41:50;;;;;;;35.23;31.20;;;;;;;;;;5056588;28;20225;-68
2023/08/30 05:44:16;;;;;;;35.33;30.40;;;;;;;;;;5056563;28;20265;-69
2023/08/30 05:46:42;;;;;;;35.33;30.40;;;;;;;;;;5056505;28;20640;-69
2023/08/30 05:49:08;;;;;;;35.67;30.97;;;;;;;;;;5056574;28;20208;-68
2023/08/30 05:51:34;;;;;;;33.07;29.53;;;;;;;;;;5056283;28;20235;-68
2023/08/30 05:54:00;;;;;;;32.87;29.20;;;;;;;;;;5056763;28;20543;-69
2023/08/30 05:56:26;;;;;;;39.07;28.97;;;;;;;;;;5056443;28;20174;-69
2023/08/30 05:58:52;;;;;;;33.57;28.93;;;;;;;;;;5039238;28;20560;-68
2023/08/30 06:01:19;;;;;;;36.20;28.63;;;;;;;;;;5058034;28;20190;-67
2023/08/30 06:03:46;;;;;;;35.50;29.17;;;;;;;;;;5057139;28;20767;-67
2023/08/30 06:06:12;;;;;;;32.07;28.57;;;;;;;;;;5058679;28;20177;-69
2023/08/30 06:08:38;;;;;;;31.07;27.87;;;;;;;;;;5059251;28;20289;-67
2023/08/30 06:11:04;;;;;;;29.73;26.27;;;;;;;;;;5056342;28;20175;-68
2023/08/30 06:13:30;;;;;;;28.63;25.60;;;;;;;;;;5055872;28;20209;-68
2023/08/30 06:15:56;;;;;;;34.07;27.50;;;;;;;;;;5055895;28;20183;-68
2023/08/30 06:18:22;;;;;;;29.03;25.30;;;;;;;;;;5056663;28;20586;-68
2023/08/30 06:20:48;;;;;;;30.93;26.67;;;;;;;;;;5055883;28;20324;-68
2023/08/30 06:23:15;;;;;;;36.87;26.97;;;;;;;;;;5055958;28;20667;-68
2023/08/30 06:25:41;;;;;;;34.27;25.27;;;;;;;;;;5039141;22;20231;-65
2023/08/30 06:28:07;;;;;;;28.17;23.43;;;;;;;;;;5035485;28;20751;-66
2023/08/30 06:30:33;;;;;;;29.47;24.77;;;;;;;;;;5035740;28;20202;-65
2023/08/30 06:33:00;;;;;;;29.17;24.53;;;;;;;;;;5035715;28;20530;-65
2023/08/30 06:35:26;;;;;;;28.90;23.53;;;;;;;;;;5016782;28;20203;-65
2023/08/30 06:37:52;;;;;;;29.30;24.17;;;;;;;;;;5036823;28;20194;-65
2023/08/30 06:40:18;;;;;;;26.33;23.23;;;;;;;;;;5017846;28;20245;-65
2023/08/30 06:42:44;;;;;;;26.10;23.20;;;;;;;;;;5035470;28;20183;-66
2023/08/30 06:45:11;;;;;;;25.87;23.17;;;;;;;;;;5037643;28;20198;-66
2023/08/30 06:47:37;;;;;;;27.10;22.70;;;;;;;;;;5020660;28;20202;-65
2023/08/30 06:50:03;;;;;;;25.73;22.40;;;;;;;;;;5038425;28;20571;-65
2023/08/30 06:52:29;;;;;;;25.57;21.77;;;;;;;;;;5020725;28;20585;-65
2023/08/30 06:54:55;;;;;;;25.77;21.70;;;;;;;;;;5019655;28;20203;-65
2023/08/30 06:57:21;;;;;;;24.40;20.80;;;;;;;;;;5017752;28;20670;-65
2023/08/30 06:59:47;;;;;;;25.70;22.30;;;;;;;;;;5017653;28;20266;-64
2023/08/30 07:02:13;;;;;;;23.37;20.83;;;;;;;;;;5034967;28;20179;-65
2023/08/30 07:04:40;;;;;;;22.80;20.40;;;;;;;;;;5035068;28;20199;-64
2023/08/30 07:07:06;;;;;;;21.93;19.63;;;;;;;;;;5034948;28;20175;-65
2023/08/30 07:09:33;;;;;;;23.20;19.50;;;;;;;;;;5034893;28;20202;-65
2023/08/30 07:11:59;;;;;;;26.10;19.07;;;;;;;;;;5016911;28;20179;-65
2023/08/30 07:14:26;;;;;;;21.73;17.70;;;;;;;;;;5034782;28;20691;-65
2023/08/30 07:16:52;;;;;;;22.80;17.90;;;;;;;;;;5034973;28;20217;-65
2023/08/30 07:19:18;;;;;;;22.93;17.80;;;;;;;;;;5017129;28;20244;-65
2023/08/30 07:21:44;;;;;;;17.97;16.07;;;;;;;;;;5016766;28;20183;-66
2023/08/30 07:24:10;;;;;;;18.57;16.07;;;;;;;;;;5034815;28;20207;-64
2023/08/30 07:26:36;;;;;;;17.97;15.60;;;;;;;;;;5034878;28;20171;-65
2023/08/30 07:29:04;;;;;;;19.23;15.33;;;;;;;;;;5034697;28;20199;-65
2023/08/30 07:31:30;;;;;;;17.10;14.43;;;;;;;;;;5035119;28;20174;-65
2023/08/30 07:33:58;;;;;;;18.53;13.83;;;;;;;;;;5034381;28;20278;-65
2023/08/30 07:36:24;;;;;;;18.30;13.53;;;;;;;;;;5034292;28;20175;-65
2023/08/30 07:38:50;;;;;;;16.77;13.23;;;;;;;;;;5034377;28;20183;-67
2023/08/30 07:41:16;;;;;;;14.80;12.40;;;;;;;;;;5035217;28;20175;-64
2023/08/30 07:43:42;;;;;;;16.17;12.60;;;;;;;;;;5016981;28;20233;-64
2023/08/30 07:46:08;;;;;;;16.73;12.80;;;;;;;;;;5034059;28;20241;-66
2023/08/30 07:48:34;;;;;;;13.03;11.60;;;;;;;;;;5016542;28;20203;-66
2023/08/30 07:51:00;;;;;;;14.03;11.57;;;;;;;;;;5034047;28;20210;-70
2023/08/30 07:53:27;;;;;;;15.80;10.93;;;;;;;;;;5034388;28;20298;-64
2023/08/30 07:55:53;;;;;;;12.37;10.00;;;;;;;;;;5016483;28;20239;-64
2023/08/30 07:58:19;;;;;;;14.53;9.57;;;;;;;;;;5016364;28;20187;-64
2023/08/30 08:00:45;;;;;;;13.07;9.37;;;;;;;;;;5034442;28;20254;-65
2023/08/30 08:03:11;;;;;;;12.47;8.70;;;;;;;;;;5034810;28;20687;-65
2023/08/30 08:05:37;;;;;;;8.83;7.60;;;;;;;;;;5034118;28;20234;-66
2023/08/30 08:08:03;;;;;;;8.50;7.70;;;;;;;;;;5016472;28;20203;-67
2023/08/30 08:10:36;;;;;;;11.17;7.90;;;;;;;;;;5018000;28;20202;-66
2023/08/30 08:13:03;;;;;;;13.10;7.83;;;;;;;;;;5036101;28;20182;-67
2023/08/30 08:15:33;;;;;;;10.23;6.73;;;;;;;;;;5035774;28;20245;-66
2023/08/30 08:18:00;;;;;;;13.17;7.03;;;;;;;;;;5037002;28;20203;-66
2023/08/30 08:20:26;;;;;;;10.20;7.30;;;;;;;;;;5038694;28;20562;-66
2023/08/30 08:22:52;;;;;;;11.80;7.03;;;;;;;;;;5038870;28;20178;-67
2023/08/30 08:25:18;;;;;;;9.60;7.10;;;;;;;;;;5019521;28;20226;-66
2023/08/30 08:27:44;;;;;;;7.53;6.53;;;;;;;;;;5036351;28;20286;-66
2023/08/30 08:30:10;;;;;;;8.33;6.83;;;;;;;;;;5037859;28;20211;-66
2023/08/30 08:32:36;;;;;;;9.77;7.47;;;;;;;;;;5038833;28;20179;-66
2023/08/30 08:35:02;;;;;;;8.57;7.10;;;;;;;;;;5037663;28;20281;-66
2023/08/30 08:37:28;;;;;;;9.03;6.93;;;;;;;;;;5020826;28;20217;-67
2023/08/30 08:39:54;;;;;;;10.90;6.80;;;;;;;;;;5020750;28;20194;-67
2023/08/30 08:42:21;;;;;;;7.53;6.43;;;;;;;;;;5020340;28;20194;-66
2023/08/30 08:44:48;;;;;;;7.33;5.53;;;;;;;;;;5019666;28;20199;-67
2023/08/30 08:47:15;;;;;;;8.20;5.80;;;;;;;;;;5016593;28;20317;-66
2023/08/30 08:49:42;;;;;;;8.17;6.40;;;;;;;;;;5034077;28;20643;-67
2023/08/30 08:52:08;;;;;;;8.87;6.47;;;;;;;;;;5033589;28;20257;-66
2023/08/30 08:54:34;;;;;;;8.47;6.20;;;;;;;;;;5033866;28;20199;-66
2023/08/30 08:57:02;;;;;;;10.73;6.80;;;;;;;;;;5015831;28;20190;-66
2023/08/30 08:59:28;;;;;;;6.80;6.17;;;;;;;;;;5033615;28;20179;-66
2023/08/30 09:01:54;;;;;;;11.30;6.57;;;;;;;;;;5016728;28;20649;-66
2023/08/30 09:04:20;;;;;;;8.13;6.30;;;;;;;;;;5016941;28;20685;-63
2023/08/30 09:06:47;;;;;;;6.50;5.90;;;;;;;;;;5035078;28;20274;-64
2023/08/30 09:09:13;;;;;;;8.00;6.33;;;;;;;;;;5033542;28;20776;-64
2023/08/30 09:11:39;;;;;;;8.53;7.10;;;;;;;;;;5034020;28;20175;-66
2023/08/30 09:14:05;;;;;;;9.37;7.60;;;;;;;;;;5033235;28;20250;-65
2023/08/30 09:16:31;;;;;;;9.73;7.87;;;;;;;;;;5015442;28;20598;-65
2023/08/30 09:18:58;;;;;;;9.33;8.10;;;;;;;;;;5033103;28;20175;-66
2023/08/30 09:21:23;;;;;;;11.13;9.00;;;;;;;;;;5015275;28;20183;-65
2023/08/30 09:23:57;;;;;;;10.57;9.07;;;;;;;;;;5015192;28;20190;-66
2023/08/30 09:26:23;;;;;;;12.50;9.90;;;;;;;;;;5015472;28;20695;-66
2023/08/30 09:28:49;;;;;;;11.70;9.90;;;;;;;;;;5033274;28;20207;-66
2023/08/30 09:31:19;;;;;;;11.70;10.37;;;;;;;;;;5014995;28;20179;-64
2023/08/30 09:33:47;;;;;;;12.53;10.93;;;;;;;;;;5033216;28;20195;-67
2023/08/30 09:36:13;;;;;;;12.67;11.30;;;;;;;;;;5015081;28;20282;-67
2023/08/30 09:38:39;;;;;;;17.67;12.47;;;;;;;;;;5032855;28;20211;-67
2023/08/30 09:41:06;;;;;;;15.07;13.37;;;;;;;;;;5015199;28;20207;-67
2023/08/30 09:43:35;;;;;;;15.90;12.20;;;;;;;;;;5015074;28;20653;-66
2023/08/30 09:46:05;;;;;;;13.97;12.50;;;;;;;;;;5032649;28;20268;-66
2023/08/30 09:48:32;;;;;;;13.37;12.07;;;;;;;;;;5032661;28;20236;-66
2023/08/30 09:51:02;;;;;;;15.77;13.70;;;;;;;;;;5033276;28;20175;-65
2023/08/30 09:53:30;;;;;;;18.03;13.67;;;;;;;;;;5015480;28;20187;-65
2023/08/30 09:55:57;;;;;;;14.80;13.30;;;;;;;;;;5032947;28;20622;-67
2023/08/30 09:58:24;;;;;;;17.53;13.73;;;;;;;;;;5032881;28;20183;-66
2023/08/30 10:00:50;;;;;;;15.47;13.93;;;;;;;;;;5032819;28;20179;-65
2023/08/30 10:03:17;;;;;;;16.83;15.23;;;;;;;;;;5032706;28;20188;-65
2023/08/30 10:05:43;;;;;;;16.90;15.20;;;;;;;;;;5032485;28;20191;-66
2023/08/30 10:08:09;;;;;;;20.63;15.20;;;;;;;;;;5015182;28;20304;-66
2023/08/30 10:10:35;;;;;;;16.87;15.17;;;;;;;;;;5036169;28;20172;-66
2023/08/30 10:13:02;;;;;;;18.47;15.23;;;;;;;;;;5018176;28;20197;-66
2023/08/30 10:15:30;;;;;;;17.47;13.57;;;;;;;;;;5036402;28;20260;-65
2023/08/30 10:17:58;;;;;;;17.73;14.33;;;;;;;;;;5036372;28;20221;-67
2023/08/30 10:20:25;;;;;;;17.27;14.70;;;;;;;;;;5036547;28;20210;-65
2023/08/30 10:22:51;;;;;;;15.53;13.93;;;;;;;;;;5035953;28;20175;-65
2023/08/30 10:25:19;;;;;;;17.23;15.43;;;;;;;;;;5035773;28;20280;-65
2023/08/30 10:27:47;;;;;;;17.30;14.47;;;;;;;;;;5018141;28;20226;-65
2023/08/30 10:30:13;;;;;;;19.83;16.47;;;;;;;;;;5018137;28;20202;-66
2023/08/30 10:32:40;;;;;;;20.53;16.27;;;;;;;;;;5018217;28;20214;-65
2023/08/30 10:35:06;;;;;;;22.07;17.23;;;;;;;;;;5035838;28;20187;-66
2023/08/30 10:37:32;;;;;;;18.90;17.03;;;;;;;;;;5035755;28;20561;-68
2023/08/30 10:40:05;;;;;;;20.20;18.23;;;;;;;;;;5035611;28;20186;-68
2023/08/30 10:42:32;;;;;;;21.17;18.90;;;;;;;;;;5036272;28;20201;-65
2023/08/30 10:45:05;;;;;;;21.07;18.90;;;;;;;;;;5017766;28;20210;-65
2023/08/30 10:47:35;;;;;;;20.97;18.97;;;;;;;;;;5035706;28;20617;-66
2023/08/30 10:50:04;;;;;;;23.00;19.10;;;;;;;;;;5035619;28;20171;-66
2023/08/30 10:52:31;;;;;;;20.60;18.60;;;;;;;;;;5035457;28;20179;-66
2023/08/30 10:55:09;;;;;;;19.30;17.20;;;;;;;;;;5035837;28;20195;-66
2023/08/30 10:57:35;;;;;;;20.80;16.67;;;;;;;;;;5035623;28;20250;-67
2023/08/30 11:00:04;;;;;;;17.03;15.27;;;;;;;;;;5017349;28;20664;-68
2023/08/30 11:02:31;;;;;;;16.53;13.90;;;;;;;;;;5034980;28;20179;-67
2023/08/30 11:05:00;;;;;;;15.47;13.30;;;;;;;;;;5035010;28;20199;-66
2023/08/30 11:07:26;;;;;;;14.20;12.70;;;;;;;;;;5035382;28;20581;-66
2023/08/30 11:09:53;;;;;;;14.87;13.57;;;;;;;;;;5017026;28;20179;-67
2023/08/30 11:12:22;;;;;;;14.00;12.07;;;;;;;;;;5017168;28;20544;-67
2023/08/30 11:14:48;;;;;;;14.43;13.13;;;;;;;;;;5017042;28;20201;-67
2023/08/30 11:17:16;;;;;;;14.10;12.60;;;;;;;;;;5034811;28;20206;-67
2023/08/30 11:19:42;;;;;;;13.77;11.27;;;;;;;;;;5034498;28;20183;-67
2023/08/30 11:22:08;;;;;;;11.70;10.50;;;;;;;;;;5034435;28;20191;-67
2023/08/30 11:24:35;;;;;;;16.13;11.07;;;;;;;;;;5034702;28;20688;-67
2023/08/30 11:27:01;;;;;;;11.60;10.50;;;;;;;;;;5034959;28;20563;-67
2023/08/30 11:29:27;;;;;;;11.53;10.37;;;;;;;;;;5034686;28;20732;-67
2023/08/30 11:31:53;;;;;;;13.27;10.83;;;;;;;;;;5016723;28;20187;-67
2023/08/30 11:34:22;;;;;;;13.77;11.53;;;;;;;;;;5016663;28;20676;-67
2023/08/30 11:36:50;;;;;;;15.50;10.33;;;;;;;;;;5035039;28;20509;-67
2023/08/30 11:39:16;;;;;;;11.53;10.40;;;;;;;;;;5016853;28;20187;-67
2023/08/30 11:41:42;;;;;;;16.50;10.63;;;;;;;;;;5034452;28;20648;-67
2023/08/30 11:44:09;;;;;;;11.93;10.30;;;;;;;;;;5016556;28;20751;-66
2023/08/30 11:46:35;;;;;;;12.80;11.07;;;;;;;;;;5034445;28;20673;-67
2023/08/30 11:49:00;;;;;;;13.50;10.57;;;;;;;;;;5034631;28;20237;-67
2023/08/30 11:51:27;;;;;;;11.00;9.90;;;;;;;;;;5016565;28;20171;-68
2023/08/30 11:53:54;;;;;;;11.30;10.30;;;;;;;;;;5034456;28;20181;-67
2023/08/30 11:56:20;;;;;;;10.83;9.83;;;;;;;;;;5016716;28;20175;-68
2023/08/30 11:58:46;;;;;;;12.97;9.73;;;;;;;;;;5016348;28;20266;-68
2023/08/30 12:01:13;;;;;;;11.33;10.33;;;;;;;;;;5034168;28;20186;-68
2023/08/30 12:03:39;;;;;;;12.97;10.27;;;;;;;;;;5034545;28;20175;-67
2023/08/30 12:06:10;;;;;;;9.03;8.27;;;;;;;;;;5016447;28;20550;-67
2023/08/30 12:08:36;;;;;;;9.53;8.60;;;;;;;;;;5016395;28;20202;-67
2023/08/30 12:11:02;;;;;;;10.83;8.73;;;;;;;;;;5016477;28;20179;-68
2023/08/30 12:13:29;;;;;;;9.40;8.30;;;;;;;;;;5016423;28;20561;-68
2023/08/30 12:15:56;;;;;;;9.20;8.30;;;;;;;;;;5033976;28;20221;-67
2023/08/30 12:18:23;;;;;;;9.93;8.40;;;;;;;;;;5033800;28;20183;-69
2023/08/30 12:20:56;;;;;;;9.17;7.70;;;;;;;;;;5016156;28;20182;-68
2023/08/30 12:23:26;;;;;;;8.60;7.80;;;;;;;;;;5034053;28;20229;-66
2023/08/30 12:25:58;;;;;;;8.80;8.00;;;;;;;;;;5033443;28;20711;-70
2023/08/30 12:28:25;;;;;;;8.73;7.93;;;;;;;;;;5015931;28;20293;-67
2023/08/30 12:30:51;;;;;;;9.30;7.63;;;;;;;;;;5033558;28;20213;-66
2023/08/30 12:33:18;;;;;;;8.47;7.57;;;;;;;;;;5014914;28;20175;-66
2023/08/30 12:35:44;;;;;;;8.77;7.70;;;;;;;;;;5033483;28;20290;-67
2023/08/30 12:38:11;;;;;;;9.13;8.23;;;;;;;;;;5033305;28;20187;-67
2023/08/30 12:40:37;;;;;;;8.87;7.97;;;;;;;;;;5015827;28;20183;-67
2023/08/30 12:43:04;;;;;;;12.90;9.00;;;;;;;;;;5015542;28;20649;-68
2023/08/30 12:45:30;;;;;;;11.07;9.20;;;;;;;;;;5033224;28;20199;-67
2023/08/30 12:47:58;;;;;;;9.30;8.50;;;;;;;;;;5015510;28;20233;-67
2023/08/30 12:50:24;;;;;;;10.90;9.83;;;;;;;;;;5015619;28;20664;-67
2023/08/30 12:52:50;;;;;;;10.33;9.17;;;;;;;;;;5059756;22;20197;-70
2023/08/30 12:55:17;;;;;;;11.20;9.80;;;;;;;;;;5035782;28;20216;-70
2023/08/30 12:57:46;;;;;;;10.63;9.50;;;;;;;;;;5054495;28;20518;-70
2023/08/30 13:00:12;;;;;;;11.40;10.20;;;;;;;;;;5040211;28;20179;-70
2023/08/30 13:02:38;;;;;;;11.07;9.87;;;;;;;;;;5035765;28;20228;-70
2023/08/30 13:05:04;;;;;;;15.77;9.47;;;;;;;;;;5053479;28;20174;-70
2023/08/30 13:07:30;;;;;;;10.07;9.07;;;;;;;;;;5052872;28;20651;-68
2023/08/30 13:09:56;;;;;;;11.37;9.47;;;;;;;;;;5060714;28;20175;-68
2023/08/30 13:12:22;;;;;;;11.23;9.73;;;;;;;;;;5035506;28;20194;-70
2023/08/30 13:14:51;;;;;;;10.00;9.10;;;;;;;;;;5054151;28;20190;-70
2023/08/30 13:17:17;;;;;;;10.47;9.10;;;;;;;;;;5053257;28;20249;-70
2023/08/30 13:19:47;;;;;;;10.60;9.50;;;;;;;;;;5052854;28;20264;-70
2023/08/30 13:22:13;;;;;;;8.97;8.07;;;;;;;;;;5053229;28;20210;-69
2023/08/30 13:24:39;;;;;;;10.33;8.20;;;;;;;;;;5053442;28;20248;-70
2023/08/30 13:27:05;;;;;;;11.30;7.73;;;;;;;;;;5052927;28;20644;-70
2023/08/30 13:29:30;;;;;;;12.17;8.70;;;;;;;;;;5052799;28;20198;-70
2023/08/30 13:31:56;;;;;;;9.67;8.67;;;;;;;;;;5034979;28;20224;-70
2023/08/30 13:34:22;;;;;;;9.13;8.33;;;;;;;;;;5052732;28;20243;-70
2023/08/30 13:36:49;;;;;;;8.40;7.53;;;;;;;;;;5053409;28;20189;-70
2023/08/30 13:39:15;;;;;;;7.37;6.67;;;;;;;;;;5053601;28;20179;-70
2023/08/30 13:41:41;;;;;;;8.53;7.63;;;;;;;;;;5053475;28;20178;-70
2023/08/30 13:44:07;;;;;;;9.83;8.00;;;;;;;;;;5037221;28;20240;-70
2023/08/30 13:46:33;;;;;;;8.47;7.57;;;;;;;;;;5057125;28;20632;-70
2023/08/30 13:48:59;;;;;;;9.13;8.23;;;;;;;;;;5039674;28;20206;-70
2023/08/30 13:51:26;;;;;;;9.67;8.23;;;;;;;;;;5058091;28;20204;-68
2023/08/30 13:53:52;;;;;;;8.90;8.10;;;;;;;;;;5039012;28;20248;-68
2023/08/30 13:56:19;;;;;;;9.03;8.13;;;;;;;;;;5057347;28;20202;-68
2023/08/30 13:58:45;;;;;;;9.90;8.70;;;;;;;;;;5057052;28;20182;-69
2023/08/30 14:01:11;;;;;;;9.17;8.07;;;;;;;;;;5056990;28;20224;-69
2023/08/30 14:03:37;;;;;;;9.87;8.60;;;;;;;;;;5040447;28;20308;-69
2023/08/30 14:06:03;;;;;;;9.67;8.53;;;;;;;;;;5056993;28;20174;-69
2023/08/30 14:08:30;;;;;;;10.10;9.10;;;;;;;;;;5038324;28;20202;-69
2023/08/30 14:10:56;;;;;;;10.37;8.57;;;;;;;;;;5038539;28;20183;-69
2023/08/30 14:13:22;;;;;;;10.73;9.63;;;;;;;;;;5056249;28;20194;-68
2023/08/30 14:15:48;;;;;;;9.93;9.03;;;;;;;;;;5038508;28;20189;-69
2023/08/30 14:18:14;;;;;;;11.53;10.33;;;;;;;;;;5056614;28;20191;-69
2023/08/30 14:20:41;;;;;;;10.23;9.30;;;;;;;;;;5038399;28;20183;-69
2023/08/30 14:23:07;;;;;;;10.17;9.20;;;;;;;;;;5056107;28;20194;-69